sensor_id;sensor_type;location;lat;lon;timestamp;pressure;altitude;pressure_sealevel;temperature;humidity
5522;BME280;2783;48.730;8.006;2022-07-29T00:00:42;99710.50;;;21.20;75.50
5522;BME280;2783;48.730;8.006;2022-07-29T00:03:12;99726.00;;;21.29;75.94
5522;BME280;2783;48.730;8.006;2022-07-29T00:05:38;99722.78;;;21.24;76.01
5522;BME280;2783;48.730;8.006;2022-07-29T00:08:04;99719.13;;;21.25;77.00
5522;BME280;2783;48.730;8.006;2022-07-29T00:10:30;99707.31;;;21.15;76.97
5522;BME280;2783;48.730;8.006;2022-07-29T00:12:56;99716.41;;;21.14;76.21
5522;BME280;2783;48.730;8.006;2022-07-29T00:15:21;99684.06;;;20.90;76.74
5522;BME280;2783;48.730;8.006;2022-07-29T00:17:47;99689.75;;;20.98;76.69
5522;BME280;2783;48.730;8.006;2022-07-29T00:20:12;99705.56;;;20.91;76.79
5522;BME280;2783;48.730;8.006;2022-07-29T00:22:39;99691.44;;;20.88;77.20
5522;BME280;2783;48.730;8.006;2022-07-29T00:25:05;99709.97;;;20.92;77.93
5522;BME280;2783;48.730;8.006;2022-07-29T00:27:31;99713.94;;;20.88;78.34
5522;BME280;2783;48.730;8.006;2022-07-29T00:29:56;99707.03;;;20.73;78.70
5522;BME280;2783;48.730;8.006;2022-07-29T00:32:21;99711.81;;;20.70;79.19
5522;BME280;2783;48.730;8.006;2022-07-29T00:34:47;99703.06;;;20.55;80.54
5522;BME280;2783;48.730;8.006;2022-07-29T00:37:31;99710.66;;;20.50;80.74
5522;BME280;2783;48.730;8.006;2022-07-29T00:39:56;99710.44;;;20.53;81.00
5522;BME280;2783;48.730;8.006;2022-07-29T00:42:22;99710.66;;;20.50;80.82
5522;BME280;2783;48.730;8.006;2022-07-29T00:44:47;99713.88;;;20.55;81.33
5522;BME280;2783;48.730;8.006;2022-07-29T00:47:13;99701.19;;;20.45;81.15
5522;BME280;2783;48.730;8.006;2022-07-29T00:49:40;99710.44;;;20.53;81.30
5522;BME280;2783;48.730;8.006;2022-07-29T00:52:07;99710.03;;;20.47;81.51
5522;BME280;2783;48.730;8.006;2022-07-29T00:54:33;99707.31;;;20.36;81.87
5522;BME280;2783;48.730;8.006;2022-07-29T00:56:59;99694.63;;;20.25;83.46
5522;BME280;2783;48.730;8.006;2022-07-29T00:59:26;99708.03;;;20.27;82.88
5522;BME280;2783;48.730;8.006;2022-07-29T01:01:52;99699.53;;;20.20;82.64
5522;BME280;2783;48.730;8.006;2022-07-29T01:04:19;99700.50;;;20.19;83.05
5522;BME280;2783;48.730;8.006;2022-07-29T01:06:45;99703.97;;;20.21;82.28
5522;BME280;2783;48.730;8.006;2022-07-29T01:09:11;99717.50;;;20.32;82.32
5522;BME280;2783;48.730;8.006;2022-07-29T01:11:38;99704.69;;;20.23;82.28
5522;BME280;2783;48.730;8.006;2022-07-29T01:14:05;99705.69;;;20.22;81.68
5522;BME280;2783;48.730;8.006;2022-07-29T01:16:34;99715.59;;;20.22;82.34
5522;BME280;2783;48.730;8.006;2022-07-29T01:27:42;99712.22;;;19.84;84.29
5522;BME280;2783;48.730;8.006;2022-07-29T01:30:09;99717.28;;;19.88;84.37
5522;BME280;2783;48.730;8.006;2022-07-29T01:32:37;99702.88;;;19.77;84.96
5522;BME280;2783;48.730;8.006;2022-07-29T01:35:14;99710.88;;;19.78;85.32
5522;BME280;2783;48.730;8.006;2022-07-29T01:37:48;99709.81;;;19.68;85.81
5522;BME280;2783;48.730;8.006;2022-07-29T01:40:28;99717.91;;;19.68;86.39
5522;BME280;2783;48.730;8.006;2022-07-29T01:42:58;99706.84;;;19.60;87.20
5522;BME280;2783;48.730;8.006;2022-07-29T01:45:37;99705.31;;;19.56;87.39
5522;BME280;2783;48.730;8.006;2022-07-29T01:48:34;99717.41;;;19.63;87.90
5522;BME280;2783;48.730;8.006;2022-07-29T01:51:06;99721.75;;;19.53;88.33
5522;BME280;2783;48.730;8.006;2022-07-29T01:53:41;99695.91;;;19.38;89.05
5522;BME280;2783;48.730;8.006;2022-07-29T01:56:08;99709.63;;;19.35;89.15
5522;BME280;2783;48.730;8.006;2022-07-29T01:58:37;99713.38;;;19.45;88.99
5522;BME280;2783;48.730;8.006;2022-07-29T02:01:05;99714.03;;;19.36;89.55
5522;BME280;2783;48.730;8.006;2022-07-29T02:03:32;99711.44;;;19.34;89.25
5522;BME280;2783;48.730;8.006;2022-07-29T02:05:59;99709.84;;;19.32;89.19
5522;BME280;2783;48.730;8.006;2022-07-29T02:08:28;99708.84;;;19.33;89.72
5522;BME280;2783;48.730;8.006;2022-07-29T02:10:55;99730.72;;;19.41;89.59
5522;BME280;2783;48.730;8.006;2022-07-29T02:13:22;99702.38;;;19.23;89.96
5522;BME280;2783;48.730;8.006;2022-07-29T02:15:49;99699.03;;;19.19;89.97
5522;BME280;2783;48.730;8.006;2022-07-29T02:18:18;99702.38;;;19.23;89.71
5522;BME280;2783;48.730;8.006;2022-07-29T02:20:48;99719.41;;;19.36;89.72
5522;BME280;2783;48.730;8.006;2022-07-29T02:23:18;99724.69;;;19.37;89.44
5522;BME280;2783;48.730;8.006;2022-07-29T02:25:45;99722.66;;;19.28;90.03
5522;BME280;2783;48.730;8.006;2022-07-29T02:28:13;99730.84;;;19.27;90.44
5522;BME280;2783;48.730;8.006;2022-07-29T02:30:41;99707.81;;;19.10;91.15
5522;BME280;2783;48.730;8.006;2022-07-29T02:33:09;99712.31;;;19.10;91.76
5522;BME280;2783;48.730;8.006;2022-07-29T02:35:35;99715.47;;;19.04;91.79
5522;BME280;2783;48.730;8.006;2022-07-29T02:38:02;99728.09;;;19.03;91.72
5522;BME280;2783;48.730;8.006;2022-07-29T02:40:48;99722.28;;;18.97;91.80
5522;BME280;2783;48.730;8.006;2022-07-29T02:43:17;99714.53;;;18.92;92.28
5522;BME280;2783;48.730;8.006;2022-07-29T02:45:44;99710.63;;;18.84;92.57
5522;BME280;2783;48.730;8.006;2022-07-29T02:48:14;99737.56;;;18.96;92.10
5522;BME280;2783;48.730;8.006;2022-07-29T02:50:50;99734.56;;;18.88;92.34
5522;BME280;2783;48.730;8.006;2022-07-29T02:53:22;99731.56;;;18.68;92.69
5522;BME280;2783;48.730;8.006;2022-07-29T02:55:57;99755.81;;;18.68;92.49
5522;BME280;2783;48.730;8.006;2022-07-29T02:58:31;99731.53;;;18.43;93.00
5522;BME280;2783;48.730;8.006;2022-07-29T03:01:15;99723.31;;;18.31;93.43
5522;BME280;2783;48.730;8.006;2022-07-29T03:03:42;99733.66;;;18.37;93.62
5522;BME280;2783;48.730;8.006;2022-07-29T03:06:12;99755.56;;;18.46;94.15
5522;BME280;2783;48.730;8.006;2022-07-29T03:08:39;99740.16;;;18.48;94.13
5522;BME280;2783;48.730;8.006;2022-07-29T03:11:05;99736.56;;;18.34;94.75
5522;BME280;2783;48.730;8.006;2022-07-29T03:13:32;99750.38;;;18.43;95.08
5522;BME280;2783;48.730;8.006;2022-07-29T03:15:58;99734.06;;;18.31;95.51
5522;BME280;2783;48.730;8.006;2022-07-29T03:18:24;99740.13;;;18.35;95.54
5522;BME280;2783;48.730;8.006;2022-07-29T03:20:51;99739.47;;;18.31;95.73
5522;BME280;2783;48.730;8.006;2022-07-29T03:23:21;99759.22;;;18.45;96.08
5522;BME280;2783;48.730;8.006;2022-07-29T03:25:48;99744.84;;;18.31;96.56
5522;BME280;2783;48.730;8.006;2022-07-29T03:28:14;99762.97;;;18.42;97.19
5522;BME280;2783;48.730;8.006;2022-07-29T03:30:40;99748.19;;;18.35;97.62
5522;BME280;2783;48.730;8.006;2022-07-29T03:33:05;99757.34;;;18.32;97.48
5522;BME280;2783;48.730;8.006;2022-07-29T03:35:31;99750.69;;;18.38;97.95
5522;BME280;2783;48.730;8.006;2022-07-29T03:37:57;99758.03;;;18.49;98.32
5522;BME280;2783;48.730;8.006;2022-07-29T03:40:29;99760.63;;;18.50;98.14
5522;BME280;2783;48.730;8.006;2022-07-29T03:42:57;99753.09;;;18.55;98.50
5522;BME280;2783;48.730;8.006;2022-07-29T03:45:25;99750.28;;;18.57;98.17
5522;BME280;2783;48.730;8.006;2022-07-29T03:47:56;99758.91;;;18.62;97.79
5522;BME280;2783;48.730;8.006;2022-07-29T03:50:22;99749.88;;;18.63;97.21
5522;BME280;2783;48.730;8.006;2022-07-29T03:52:48;99768.22;;;18.83;95.93
5522;BME280;2783;48.730;8.006;2022-07-29T03:55:14;99773.38;;;18.98;94.93
5522;BME280;2783;48.730;8.006;2022-07-29T03:57:41;99752.59;;;18.88;95.02
5522;BME280;2783;48.730;8.006;2022-07-29T04:00:08;99756.47;;;18.84;94.41
5522;BME280;2783;48.730;8.006;2022-07-29T04:02:36;99778.44;;;18.90;94.69
5522;BME280;2783;48.730;8.006;2022-07-29T04:05:01;99766.25;;;18.72;94.38
5522;BME280;2783;48.730;8.006;2022-07-29T04:07:27;99776.94;;;18.74;94.69
5522;BME280;2783;48.730;8.006;2022-07-29T04:09:53;99779.84;;;18.71;94.74
5522;BME280;2783;48.730;8.006;2022-07-29T04:12:18;99771.50;;;18.49;95.03
5522;BME280;2783;48.730;8.006;2022-07-29T04:14:46;99781.72;;;18.44;95.08
5522;BME280;2783;48.730;8.006;2022-07-29T04:17:11;99775.03;;;18.36;95.40
5522;BME280;2783;48.730;8.006;2022-07-29T04:19:37;99787.44;;;18.39;96.19
5522;BME280;2783;48.730;8.006;2022-07-29T04:22:02;99788.78;;;18.32;96.43
5522;BME280;2783;48.730;8.006;2022-07-29T04:24:29;99789.34;;;18.37;96.58
5522;BME280;2783;48.730;8.006;2022-07-29T04:26:55;99806.78;;;18.58;96.94
5522;BME280;2783;48.730;8.006;2022-07-29T04:29:20;99776.78;;;18.50;96.71
5522;BME280;2783;48.730;8.006;2022-07-29T04:31:46;99790.84;;;18.68;96.37
5522;BME280;2783;48.730;8.006;2022-07-29T04:34:12;99783.53;;;18.70;94.96
5522;BME280;2783;48.730;8.006;2022-07-29T04:36:37;99789.97;;;18.80;94.15
5522;BME280;2783;48.730;8.006;2022-07-29T04:39:03;99794.94;;;18.86;93.73
5522;BME280;2783;48.730;8.006;2022-07-29T04:41:29;99791.72;;;18.81;93.35
5522;BME280;2783;48.730;8.006;2022-07-29T04:43:54;99805.72;;;18.86;93.65
5522;BME280;2783;48.730;8.006;2022-07-29T04:46:20;99781.00;;;18.67;93.54
5522;BME280;2783;48.730;8.006;2022-07-29T04:48:45;99805.72;;;18.86;94.25
5522;BME280;2783;48.730;8.006;2022-07-29T04:51:12;99794.41;;;18.81;94.11
5522;BME280;2783;48.730;8.006;2022-07-29T04:53:37;99788.03;;;18.82;94.19
5522;BME280;2783;48.730;8.006;2022-07-29T04:56:03;99809.84;;;19.04;93.76
5522;BME280;2783;48.730;8.006;2022-07-29T04:58:29;99786.09;;;18.96;93.06
5522;BME280;2783;48.730;8.006;2022-07-29T05:00:54;99808.00;;;19.17;92.54
5522;BME280;2783;48.730;8.006;2022-07-29T05:03:20;99820.19;;;19.22;92.15
5522;BME280;2783;48.730;8.006;2022-07-29T05:05:45;99797.75;;;19.22;91.43
5522;BME280;2783;48.730;8.006;2022-07-29T05:08:11;99809.53;;;19.33;91.52
5522;BME280;2783;48.730;8.006;2022-07-29T05:10:46;99797.94;;;19.44;90.28
5522;BME280;2783;48.730;8.006;2022-07-29T05:13:11;99822.06;;;19.71;88.49
5522;BME280;2783;48.730;8.006;2022-07-29T05:15:37;99806.75;;;19.71;87.72
5522;BME280;2783;48.730;8.006;2022-07-29T05:18:03;99827.34;;;20.08;85.72
5522;BME280;2783;48.730;8.006;2022-07-29T05:20:29;99801.66;;;20.15;84.49
5522;BME280;2783;48.730;8.006;2022-07-29T05:22:55;99817.50;;;20.43;83.87
5522;BME280;2783;48.730;8.006;2022-07-29T05:25:21;99814.63;;;20.57;83.24
5522;BME280;2783;48.730;8.006;2022-07-29T05:27:47;99816.13;;;20.72;81.18
5522;BME280;2783;48.730;8.006;2022-07-29T05:30:12;99825.59;;;21.02;80.06
5522;BME280;2783;48.730;8.006;2022-07-29T05:32:38;99824.84;;;21.11;79.80
5522;BME280;2783;48.730;8.006;2022-07-29T05:35:03;99823.03;;;21.22;79.16
5522;BME280;2783;48.730;8.006;2022-07-29T05:37:29;99814.06;;;21.33;78.84
5522;BME280;2783;48.730;8.006;2022-07-29T05:39:54;99818.97;;;21.61;78.55
5522;BME280;2783;48.730;8.006;2022-07-29T05:42:20;99828.94;;;21.71;77.02
5522;BME280;2783;48.730;8.006;2022-07-29T05:44:45;99821.06;;;21.68;76.03
5522;BME280;2783;48.730;8.006;2022-07-29T05:47:12;99852.72;;;21.90;76.12
5522;BME280;2783;48.730;8.006;2022-07-29T05:49:38;99840.91;;;21.80;75.93
5522;BME280;2783;48.730;8.006;2022-07-29T05:54:29;99857.38;;;21.99;75.73
5522;BME280;2783;48.730;8.006;2022-07-29T05:56:54;99860.69;;;22.13;75.82
5522;BME280;2783;48.730;8.006;2022-07-29T05:59:20;99852.50;;;22.25;75.00
5522;BME280;2783;48.730;8.006;2022-07-29T06:01:45;99847.88;;;22.47;71.47
5522;BME280;2783;48.730;8.006;2022-07-29T06:04:11;99862.59;;;22.76;69.57
5522;BME280;2783;48.730;8.006;2022-07-29T06:06:36;99866.16;;;22.77;68.38
5522;BME280;2783;48.730;8.006;2022-07-29T06:09:02;99862.88;;;22.94;69.49
5522;BME280;2783;48.730;8.006;2022-07-29T06:11:27;99862.81;;;23.25;67.91
5522;BME280;2783;48.730;8.006;2022-07-29T06:13:53;99856.41;;;23.47;64.72
5522;BME280;2783;48.730;8.006;2022-07-29T06:16:19;99863.13;;;23.83;62.80
5522;BME280;2783;48.730;8.006;2022-07-29T06:18:45;99846.03;;;23.92;61.46
5522;BME280;2783;48.730;8.006;2022-07-29T06:21:10;99846.69;;;24.24;60.26
5522;BME280;2783;48.730;8.006;2022-07-29T06:23:39;99867.50;;;24.63;59.10
5522;BME280;2783;48.730;8.006;2022-07-29T06:26:05;99862.81;;;24.75;57.92
5522;BME280;2783;48.730;8.006;2022-07-29T06:28:31;99865.09;;;24.98;56.80
5522;BME280;2783;48.730;8.006;2022-07-29T06:30:57;99849.06;;;25.05;55.90
5522;BME280;2783;48.730;8.006;2022-07-29T06:33:22;99862.19;;;25.28;55.60
5522;BME280;2783;48.730;8.006;2022-07-29T06:35:48;99849.56;;;25.27;54.86
5522;BME280;2783;48.730;8.006;2022-07-29T06:38:14;99851.31;;;25.28;54.61
5522;BME280;2783;48.730;8.006;2022-07-29T06:40:41;99848.47;;;25.20;55.39
5522;BME280;2783;48.730;8.006;2022-07-29T06:43:37;99866.22;;;25.24;57.00
5522;BME280;2783;48.730;8.006;2022-07-29T06:46:05;99873.81;;;25.30;56.35
5522;BME280;2783;48.730;8.006;2022-07-29T06:48:32;99872.53;;;25.25;56.73
5522;BME280;2783;48.730;8.006;2022-07-29T06:50:58;99853.19;;;25.18;57.17
5522;BME280;2783;48.730;8.006;2022-07-29T06:53:24;99881.53;;;25.44;56.67
5522;BME280;2783;48.730;8.006;2022-07-29T06:55:49;99867.19;;;25.33;54.24
5522;BME280;2783;48.730;8.006;2022-07-29T06:58:15;99867.34;;;25.41;55.16
5522;BME280;2783;48.730;8.006;2022-07-29T07:00:43;99844.69;;;25.40;54.65
5522;BME280;2783;48.730;8.006;2022-07-29T07:03:09;99862.41;;;25.63;54.83
5522;BME280;2783;48.730;8.006;2022-07-29T07:05:35;99875.34;;;25.61;53.48
5522;BME280;2783;48.730;8.006;2022-07-29T07:08:00;99867.59;;;25.66;54.29
5522;BME280;2783;48.730;8.006;2022-07-29T07:10:25;99889.09;;;25.96;53.52
5522;BME280;2783;48.730;8.006;2022-07-29T07:12:51;99887.16;;;26.16;53.85
5522;BME280;2783;48.730;8.006;2022-07-29T07:15:16;99893.41;;;26.36;52.54
5522;BME280;2783;48.730;8.006;2022-07-29T07:17:42;99864.50;;;26.16;52.28
5522;BME280;2783;48.730;8.006;2022-07-29T07:20:08;99902.97;;;26.40;53.92
5522;BME280;2783;48.730;8.006;2022-07-29T07:22:33;99900.56;;;26.37;54.61
5522;BME280;2783;48.730;8.006;2022-07-29T07:24:59;99887.13;;;26.26;54.08
5522;BME280;2783;48.730;8.006;2022-07-29T07:27:25;99897.19;;;26.25;55.27
5522;BME280;2783;48.730;8.006;2022-07-29T07:29:51;99890.53;;;26.28;54.57
5522;BME280;2783;48.730;8.006;2022-07-29T07:32:17;99906.38;;;26.24;53.71
5522;BME280;2783;48.730;8.006;2022-07-29T07:34:42;99906.97;;;26.18;54.17
5522;BME280;2783;48.730;8.006;2022-07-29T07:37:08;99910.34;;;26.03;54.67
5522;BME280;2783;48.730;8.006;2022-07-29T07:39:34;99909.03;;;26.07;55.05
5522;BME280;2783;48.730;8.006;2022-07-29T07:41:59;99886.81;;;25.92;54.66
5522;BME280;2783;48.730;8.006;2022-07-29T07:44:25;99894.00;;;26.03;55.27
5522;BME280;2783;48.730;8.006;2022-07-29T07:46:50;99888.41;;;26.04;54.61
5522;BME280;2783;48.730;8.006;2022-07-29T07:49:16;99894.28;;;26.27;53.61
5522;BME280;2783;48.730;8.006;2022-07-29T07:51:41;99902.81;;;26.41;53.41
5522;BME280;2783;48.730;8.006;2022-07-29T07:54:07;99897.16;;;26.52;52.63
5522;BME280;2783;48.730;8.006;2022-07-29T07:56:32;99907.28;;;27.04;53.09
5522;BME280;2783;48.730;8.006;2022-07-29T07:58:58;99904.22;;;27.68;51.03
5522;BME280;2783;48.730;8.006;2022-07-29T08:01:23;99898.28;;;27.98;49.23
5522;BME280;2783;48.730;8.006;2022-07-29T08:03:49;99912.56;;;28.52;47.53
5522;BME280;2783;48.730;8.006;2022-07-29T08:06:15;99906.47;;;28.74;47.58
5522;BME280;2783;48.730;8.006;2022-07-29T08:08:41;99914.88;;;28.96;46.11
5522;BME280;2783;48.730;8.006;2022-07-29T08:11:06;99915.72;;;28.89;46.67
5522;BME280;2783;48.730;8.006;2022-07-29T08:13:32;99914.50;;;28.83;47.43
5522;BME280;2783;48.730;8.006;2022-07-29T08:15:59;99915.91;;;28.79;46.88
5522;BME280;2783;48.730;8.006;2022-07-29T08:18:36;99928.13;;;29.25;45.90
5522;BME280;2783;48.730;8.006;2022-07-29T08:21:03;99919.91;;;29.81;45.32
5522;BME280;2783;48.730;8.006;2022-07-29T08:23:28;99933.13;;;30.40;43.47
5522;BME280;2783;48.730;8.006;2022-07-29T08:26:03;99916.56;;;30.56;43.10
5522;BME280;2783;48.730;8.006;2022-07-29T08:28:29;99927.44;;;30.42;41.22
5522;BME280;2783;48.730;8.006;2022-07-29T08:30:54;99905.50;;;29.79;43.60
5522;BME280;2783;48.730;8.006;2022-07-29T08:33:20;99928.81;;;29.67;44.95
5522;BME280;2783;48.730;8.006;2022-07-29T08:35:45;99921.28;;;29.69;45.02
5522;BME280;2783;48.730;8.006;2022-07-29T08:38:11;99921.78;;;29.64;44.88
5522;BME280;2783;48.730;8.006;2022-07-29T08:40:36;99934.31;;;29.27;45.85
5522;BME280;2783;48.730;8.006;2022-07-29T08:43:06;99916.16;;;29.34;45.54
5522;BME280;2783;48.730;8.006;2022-07-29T08:45:49;99915.78;;;29.77;44.72
5522;BME280;2783;48.730;8.006;2022-07-29T08:48:20;99932.69;;;30.59;44.31
5522;BME280;2783;48.730;8.006;2022-07-29T08:50:47;99932.41;;;30.85;43.36
5522;BME280;2783;48.730;8.006;2022-07-29T08:53:15;99945.47;;;31.06;42.74
5522;BME280;2783;48.730;8.006;2022-07-29T08:55:45;99938.16;;;31.66;41.30
5522;BME280;2783;48.730;8.006;2022-07-29T08:58:13;99931.63;;;32.19;40.08
5522;BME280;2783;48.730;8.006;2022-07-29T09:00:43;99928.72;;;32.70;39.45
5522;BME280;2783;48.730;8.006;2022-07-29T09:03:12;99923.34;;;32.62;38.02
5522;BME280;2783;48.730;8.006;2022-07-29T09:05:43;99924.41;;;32.61;39.03
5522;BME280;2783;48.730;8.006;2022-07-29T09:08:10;99932.53;;;32.69;39.94
5522;BME280;2783;48.730;8.006;2022-07-29T09:10:36;99926.53;;;32.80;38.70
5522;BME280;2783;48.730;8.006;2022-07-29T09:13:02;99927.59;;;33.15;37.15
5522;BME280;2783;48.730;8.006;2022-07-29T09:15:28;99930.25;;;33.44;38.30
5522;BME280;2783;48.730;8.006;2022-07-29T09:17:53;99936.25;;;33.75;35.12
5522;BME280;2783;48.730;8.006;2022-07-29T09:20:21;99923.53;;;34.02;34.54
5522;BME280;2783;48.730;8.006;2022-07-29T09:22:47;99915.97;;;33.89;34.14
5522;BME280;2783;48.730;8.006;2022-07-29T09:25:31;99923.22;;;33.42;35.94
5522;BME280;2783;48.730;8.006;2022-07-29T09:28:14;99917.34;;;33.51;35.89
5522;BME280;2783;48.730;8.006;2022-07-29T09:30:53;99896.16;;;33.52;35.00
5522;BME280;2783;48.730;8.006;2022-07-29T09:33:20;99916.22;;;33.67;35.63
5522;BME280;2783;48.730;8.006;2022-07-29T09:35:58;99932.81;;;33.94;35.16
5522;BME280;2783;48.730;8.006;2022-07-29T09:38:24;99923.88;;;34.20;34.89
5522;BME280;2783;48.730;8.006;2022-07-29T09:40:57;99922.34;;;34.17;36.16
5522;BME280;2783;48.730;8.006;2022-07-29T09:43:23;99936.38;;;34.50;35.63
5522;BME280;2783;48.730;8.006;2022-07-29T09:45:48;99919.00;;;34.56;35.21
5522;BME280;2783;48.730;8.006;2022-07-29T09:48:16;99919.47;;;34.66;34.56
5522;BME280;2783;48.730;8.006;2022-07-29T09:50:44;99929.78;;;34.98;34.68
5522;BME280;2783;48.730;8.006;2022-07-29T09:53:11;99932.38;;;35.06;33.58
5522;BME280;2783;48.730;8.006;2022-07-29T09:55:51;99919.31;;;34.87;34.66
5522;BME280;2783;48.730;8.006;2022-07-29T09:58:19;99927.75;;;35.33;33.99
5522;BME280;2783;48.730;8.006;2022-07-29T10:00:46;99917.28;;;35.02;33.50
5522;BME280;2783;48.730;8.006;2022-07-29T10:03:13;99924.72;;;35.08;33.09
5522;BME280;2783;48.730;8.006;2022-07-29T10:05:38;99908.78;;;35.23;32.46
5522;BME280;2783;48.730;8.006;2022-07-29T10:08:04;99918.34;;;35.27;32.92
5522;BME280;2783;48.730;8.006;2022-07-29T10:10:31;99911.41;;;35.57;32.98
5522;BME280;2783;48.730;8.006;2022-07-29T10:13:04;99898.63;;;35.69;32.50
5522;BME280;2783;48.730;8.006;2022-07-29T10:15:32;99898.41;;;35.64;31.91
5522;BME280;2783;48.730;8.006;2022-07-29T10:17:59;99900.91;;;35.20;33.28
5522;BME280;2783;48.730;8.006;2022-07-29T10:20:26;99875.84;;;35.48;32.04
5522;BME280;2783;48.730;8.006;2022-07-29T10:22:52;99878.16;;;35.77;30.42
5522;BME280;2783;48.730;8.006;2022-07-29T10:25:18;99863.06;;;35.79;30.53
5522;BME280;2783;48.730;8.006;2022-07-29T10:27:45;99892.25;;;35.89;29.58
5522;BME280;2783;48.730;8.006;2022-07-29T10:30:12;99890.53;;;36.01;30.65
5522;BME280;2783;48.730;8.006;2022-07-29T10:40:45;99886.00;;;36.32;28.33
5522;BME280;2783;48.730;8.006;2022-07-29T10:43:41;99870.00;;;36.21;28.49
5522;BME280;2783;48.730;8.006;2022-07-29T10:46:07;99877.50;;;36.14;28.08
5522;BME280;2783;48.730;8.006;2022-07-29T10:48:34;99874.69;;;36.34;27.49
5522;BME280;2783;48.730;8.006;2022-07-29T10:51:01;99871.22;;;36.45;26.42
5522;BME280;2783;48.730;8.006;2022-07-29T10:56:28;99869.84;;;35.97;28.46
5522;BME280;2783;48.730;8.006;2022-07-29T11:01:52;99872.66;;;35.38;28.48
5522;BME280;2783;48.730;8.006;2022-07-29T11:07:09;99882.59;;;35.06;30.79
5522;BME280;2783;48.730;8.006;2022-07-29T11:09:34;99872.50;;;34.79;30.19
5522;BME280;2783;48.730;8.006;2022-07-29T11:12:00;99862.88;;;34.62;30.65
5522;BME280;2783;48.730;8.006;2022-07-29T11:17:17;99882.44;;;33.65;31.61
5522;BME280;2783;48.730;8.006;2022-07-29T11:19:43;99886.41;;;34.11;32.36
5522;BME280;2783;48.730;8.006;2022-07-29T11:22:10;99866.75;;;34.74;30.73
5522;BME280;2783;48.730;8.006;2022-07-29T11:24:37;99886.00;;;35.15;30.51
5522;BME280;2783;48.730;8.006;2022-07-29T11:30:07;99881.81;;;34.72;31.80
5522;BME280;2783;48.730;8.006;2022-07-29T11:32:38;99881.53;;;34.47;31.34
5522;BME280;2783;48.730;8.006;2022-07-29T11:35:21;99895.28;;;34.00;32.34
5522;BME280;2783;48.730;8.006;2022-07-29T11:41:25;99892.13;;;31.97;34.66
5522;BME280;2783;48.730;8.006;2022-07-29T11:46:46;99898.09;;;31.49;35.75
5522;BME280;2783;48.730;8.006;2022-07-29T11:49:25;99889.06;;;31.18;36.20
5522;BME280;2783;48.730;8.006;2022-07-29T11:51:53;99902.13;;;31.16;36.01
5522;BME280;2783;48.730;8.006;2022-07-29T11:54:25;99887.03;;;30.89;36.66
5522;BME280;2783;48.730;8.006;2022-07-29T11:56:53;99870.13;;;30.77;35.88
5522;BME280;2783;48.730;8.006;2022-07-29T11:59:20;99864.97;;;30.74;36.31
5522;BME280;2783;48.730;8.006;2022-07-29T12:01:57;99894.00;;;31.00;35.93
5522;BME280;2783;48.730;8.006;2022-07-29T12:04:23;99876.91;;;30.89;36.75
5522;BME280;2783;48.730;8.006;2022-07-29T12:06:52;99891.50;;;31.13;36.81
5522;BME280;2783;48.730;8.006;2022-07-29T12:09:19;99884.91;;;31.44;37.14
5522;BME280;2783;48.730;8.006;2022-07-29T12:11:46;99883.03;;;31.59;36.42
5522;BME280;2783;48.730;8.006;2022-07-29T12:14:29;99888.19;;;31.77;34.98
5522;BME280;2783;48.730;8.006;2022-07-29T12:16:56;99889.34;;;31.82;36.00
5522;BME280;2783;48.730;8.006;2022-07-29T12:19:21;99889.69;;;31.65;34.55
5522;BME280;2783;48.730;8.006;2022-07-29T12:21:49;99892.31;;;31.58;36.31
5522;BME280;2783;48.730;8.006;2022-07-29T12:24:15;99871.56;;;31.56;35.76
5522;BME280;2783;48.730;8.006;2022-07-29T12:26:55;99893.00;;;31.75;34.62
5522;BME280;2783;48.730;8.006;2022-07-29T12:29:21;99898.31;;;31.76;35.19
5522;BME280;2783;48.730;8.006;2022-07-29T12:31:52;99886.78;;;31.81;35.70
5522;BME280;2783;48.730;8.006;2022-07-29T12:34:20;99880.31;;;31.74;34.78
5522;BME280;2783;48.730;8.006;2022-07-29T12:36:46;99881.81;;;31.76;35.30
5522;BME280;2783;48.730;8.006;2022-07-29T12:39:12;99898.91;;;31.72;34.18
5522;BME280;2783;48.730;8.006;2022-07-29T12:41:38;99869.78;;;31.63;35.85
5522;BME280;2783;48.730;8.006;2022-07-29T12:44:04;99885.06;;;31.80;34.79
5522;BME280;2783;48.730;8.006;2022-07-29T12:46:29;99874.03;;;31.80;34.47
5522;BME280;2783;48.730;8.006;2022-07-29T12:48:55;99868.13;;;31.54;35.67
5522;BME280;2783;48.730;8.006;2022-07-29T12:51:36;99884.25;;;31.57;36.77
5522;BME280;2783;48.730;8.006;2022-07-29T12:54:05;99891.28;;;31.45;35.87
5522;BME280;2783;48.730;8.006;2022-07-29T12:56:32;99871.81;;;31.24;35.85
5522;BME280;2783;48.730;8.006;2022-07-29T12:58:57;99880.38;;;31.29;36.02
5522;BME280;2783;48.730;8.006;2022-07-29T13:01:23;99886.13;;;31.42;35.95
5522;BME280;2783;48.730;8.006;2022-07-29T13:03:57;99871.53;;;31.41;34.91
5522;BME280;2783;48.730;8.006;2022-07-29T13:06:42;99881.41;;;31.65;34.88
5522;BME280;2783;48.730;8.006;2022-07-29T13:09:19;99871.38;;;31.72;35.44
5522;BME280;2783;48.730;8.006;2022-07-29T13:11:49;99889.75;;;31.94;34.73
5522;BME280;2783;48.730;8.006;2022-07-29T13:17:08;99859.59;;;31.49;36.62
5522;BME280;2783;48.730;8.006;2022-07-29T13:19:39;99868.34;;;31.67;35.64
5522;BME280;2783;48.730;8.006;2022-07-29T13:22:14;99872.25;;;31.72;35.41
5522;BME280;2783;48.730;8.006;2022-07-29T13:25:00;99872.44;;;31.71;35.52
5522;BME280;2783;48.730;8.006;2022-07-29T13:27:29;99890.94;;;31.77;36.05
5522;BME280;2783;48.730;8.006;2022-07-29T13:29:57;99863.03;;;31.51;35.45
5522;BME280;2783;48.730;8.006;2022-07-29T13:32:24;99880.69;;;31.71;34.89
5522;BME280;2783;48.730;8.006;2022-07-29T13:34:50;99869.22;;;31.82;34.91
5522;BME280;2783;48.730;8.006;2022-07-29T13:37:16;99874.47;;;31.91;34.32
5522;BME280;2783;48.730;8.006;2022-07-29T13:39:42;99864.19;;;31.71;34.46
5522;BME280;2783;48.730;8.006;2022-07-29T13:42:08;99870.00;;;31.39;34.25
5522;BME280;2783;48.730;8.006;2022-07-29T13:44:34;99877.94;;;31.34;34.75
5522;BME280;2783;48.730;8.006;2022-07-29T13:46:59;99871.69;;;31.17;34.83
5522;BME280;2783;48.730;8.006;2022-07-29T13:49:25;99874.47;;;30.95;36.54
5522;BME280;2783;48.730;8.006;2022-07-29T13:51:51;99873.53;;;30.79;36.39
5522;BME280;2783;48.730;8.006;2022-07-29T13:54:17;99882.97;;;30.85;35.64
5522;BME280;2783;48.730;8.006;2022-07-29T13:56:42;99878.97;;;30.87;36.13
5522;BME280;2783;48.730;8.006;2022-07-29T13:59:08;99881.88;;;31.17;36.82
5522;BME280;2783;48.730;8.006;2022-07-29T14:01:34;99870.31;;;31.58;36.75
5522;BME280;2783;48.730;8.006;2022-07-29T14:04:00;99868.84;;;31.85;35.43
5522;BME280;2783;48.730;8.006;2022-07-29T14:06:25;99858.72;;;32.00;35.43
5522;BME280;2783;48.730;8.006;2022-07-29T14:08:51;99854.56;;;32.04;35.05